world map with ASJ marked

ASJ - Airport

This information may not be accurate or current and is not valid for navigation or flight planning. No warranty of fitness for any purpose is made or implied.

flag of Kagoshimaflag of Japan

Donate via PayPal

Additional information is available on the NEW Great Circle Mapper

Location
City:  Amami, Amami Oshima, Satsunan Islands, Kagoshima, Japan
Name:Amami Airport
ICAO / IATA:RJKA / ASJ

Details
Type:Airport (Aerodrome, Airfield)
Latitude:28°25'50"N (28.430633)
Longitude:129°42'45"E (129.712542)
Datum:WGS 1984
Elevation:27 ft (8 m)
Runways:1
Longest:6560 × 150 ft (1999 × 45.5 m)

Time
Timezone:UTC+9 (DST+11)
Local Time:

Weather
METAR:RJKA  041000Z 33004KT 300V360 9999 -SHRA FEW030 SCT035 BKN090 16/11 Q1020

Related Locations
Nearby:
Farthest:SSBJ: 12436 mi / 20014 km
Bom Jesus [Aeropuerto Bom Jesus], RS, BR

Find:

   beyond  
but within

Other Information
Maps:
Sources:

  


 


Great Circle Mapper   Great Circle Mapper
Great Circle Mapper FAQ   Great Circle Mapper FAQ
  Karl's Home Page
KLSē   KLSē Home
   GC on Facebook
Airlines of the World   Airlines of the World
Donate via PayPal


Copyright © 2004-2019, Karl L. Swartz. All rights reserved.
All trademarks mentioned herein belong to their respective owners.

Please see credits for attribution and copyright information.

Karl Swartz <karl@kls2.com>
  Powered by FreeBSD
Valid HTML 4.01!
Labeled with ICRA
hCard Microformat
Geo Microformat